sensor_id;sensor_type;location;lat;lon;timestamp;P1;durP1;ratioP1;P2;durP2;ratioP2
1523;SDS011;755;53.658;10.118;2023-04-01T00:04:17;18.05;;;7.22;;
1523;SDS011;755;53.658;10.118;2023-04-01T00:14:19;15.10;;;6.85;;
1523;SDS011;755;53.658;10.118;2023-04-01T00:24:22;17.45;;;6.63;;
1523;SDS011;755;53.658;10.118;2023-04-01T00:34:24;13.98;;;6.20;;
1523;SDS011;755;53.658;10.118;2023-04-01T00:44:30;22.02;;;6.97;;
1523;SDS011;755;53.658;10.118;2023-04-01T00:54:34;17.80;;;7.57;;
1523;SDS011;755;53.658;10.118;2023-04-01T01:04:40;26.35;;;8.60;;
1523;SDS011;755;53.658;10.118;2023-04-01T01:35:30;23.45;;;8.95;;
1523;SDS011;755;53.658;10.118;2023-04-01T01:55:41;17.33;;;8.95;;
1523;SDS011;755;53.658;10.118;2023-04-01T02:05:44;22.67;;;10.13;;
1523;SDS011;755;53.658;10.118;2023-04-01T02:15:48;24.73;;;8.38;;
1523;SDS011;755;53.658;10.118;2023-04-01T02:25:55;27.33;;;10.25;;
1523;SDS011;755;53.658;10.118;2023-04-01T02:35:59;23.60;;;9.57;;
1523;SDS011;755;53.658;10.118;2023-04-01T02:46:01;23.42;;;9.80;;
1523;SDS011;755;53.658;10.118;2023-04-01T02:56:04;22.83;;;9.88;;
1523;SDS011;755;53.658;10.118;2023-04-01T03:06:07;34.35;;;11.32;;
1523;SDS011;755;53.658;10.118;2023-04-01T03:16:12;26.58;;;11.60;;
1523;SDS011;755;53.658;10.118;2023-04-01T03:26:15;25.45;;;11.63;;
1523;SDS011;755;53.658;10.118;2023-04-01T03:36:18;27.27;;;12.45;;
1523;SDS011;755;53.658;10.118;2023-04-01T03:46:20;28.55;;;12.20;;
1523;SDS011;755;53.658;10.118;2023-04-01T03:56:24;22.15;;;11.40;;
1523;SDS011;755;53.658;10.118;2023-04-01T04:06:26;23.48;;;11.77;;
1523;SDS011;755;53.658;10.118;2023-04-01T04:16:30;25.10;;;11.05;;
1523;SDS011;755;53.658;10.118;2023-04-01T04:26:32;22.00;;;10.40;;
1523;SDS011;755;53.658;10.118;2023-04-01T04:36:36;25.95;;;10.98;;
1523;SDS011;755;53.658;10.118;2023-04-01T04:46:38;4.10;;;2.67;;
1523;SDS011;755;53.658;10.118;2023-04-01T04:56:41;3.97;;;2.80;;
1523;SDS011;755;53.658;10.118;2023-04-01T05:06:43;7.65;;;2.60;;
1523;SDS011;755;53.658;10.118;2023-04-01T05:16:47;2.95;;;2.10;;
1523;SDS011;755;53.658;10.118;2023-04-01T05:26:49;2.42;;;1.75;;
1523;SDS011;755;53.658;10.118;2023-04-01T05:36:52;3.55;;;1.63;;
1523;SDS011;755;53.658;10.118;2023-04-01T05:46:54;2.72;;;1.77;;
1523;SDS011;755;53.658;10.118;2023-04-01T05:56:58;2.67;;;1.90;;
1523;SDS011;755;53.658;10.118;2023-04-01T06:07:00;4.00;;;1.80;;
1523;SDS011;755;53.658;10.118;2023-04-01T06:17:07;2.92;;;1.70;;
1523;SDS011;755;53.658;10.118;2023-04-01T06:27:23;2.60;;;1.30;;
1523;SDS011;755;53.658;10.118;2023-04-01T06:37:44;2.80;;;0.85;;
1523;SDS011;755;53.658;10.118;2023-04-01T06:48:18;2.15;;;1.20;;
1523;SDS011;755;53.658;10.118;2023-04-01T06:58:36;1.20;;;0.88;;
1523;SDS011;755;53.658;10.118;2023-04-01T07:08:41;1.42;;;0.80;;
1523;SDS011;755;53.658;10.118;2023-04-01T07:18:47;1.10;;;1.00;;
1523;SDS011;755;53.658;10.118;2023-04-01T07:28:54;1.58;;;1.20;;
1523;SDS011;755;53.658;10.118;2023-04-01T07:39:01;3.33;;;0.90;;
1523;SDS011;755;53.658;10.118;2023-04-01T07:49:11;2.15;;;1.25;;
1523;SDS011;755;53.658;10.118;2023-04-01T07:59:24;2.05;;;0.80;;
1523;SDS011;755;53.658;10.118;2023-04-01T08:09:38;2.05;;;0.93;;
1523;SDS011;755;53.658;10.118;2023-04-01T08:20:10;0.85;;;0.55;;
1523;SDS011;755;53.658;10.118;2023-04-01T08:30:58;1.20;;;0.93;;
1523;SDS011;755;53.658;10.118;2023-04-01T08:51:46;1.42;;;0.70;;
1523;SDS011;755;53.658;10.118;2023-04-01T09:13:01;4.05;;;1.00;;
1523;SDS011;755;53.658;10.118;2023-04-01T09:23:26;2.05;;;0.75;;
1523;SDS011;755;53.658;10.118;2023-04-01T09:44:27;1.52;;;0.80;;
1523;SDS011;755;53.658;10.118;2023-04-01T09:54:40;2.08;;;0.98;;
1523;SDS011;755;53.658;10.118;2023-04-01T10:27:31;1.15;;;0.40;;
1523;SDS011;755;53.658;10.118;2023-04-01T10:48:24;3.38;;;0.70;;
1523;SDS011;755;53.658;10.118;2023-04-01T10:58:56;1.20;;;0.70;;
1523;SDS011;755;53.658;10.118;2023-04-01T11:09:26;1.40;;;0.75;;
1523;SDS011;755;53.658;10.118;2023-04-01T11:19:58;1.35;;;1.00;;
1523;SDS011;755;53.658;10.118;2023-04-01T11:30:25;2.23;;;1.80;;
1523;SDS011;755;53.658;10.118;2023-04-01T11:40:35;9.27;;;3.45;;
1523;SDS011;755;53.658;10.118;2023-04-01T11:50:50;4.35;;;2.55;;
1523;SDS011;755;53.658;10.118;2023-04-01T12:01:13;4.95;;;2.25;;
1523;SDS011;755;53.658;10.118;2023-04-01T12:11:28;8.30;;;3.35;;
1523;SDS011;755;53.658;10.118;2023-04-01T12:21:36;8.57;;;3.00;;
1523;SDS011;755;53.658;10.118;2023-04-01T12:31:45;8.27;;;3.88;;
1523;SDS011;755;53.658;10.118;2023-04-01T12:41:54;15.63;;;4.90;;
1523;SDS011;755;53.658;10.118;2023-04-01T12:52:07;9.25;;;4.97;;
1523;SDS011;755;53.658;10.118;2023-04-01T13:02:11;8.57;;;3.57;;
1523;SDS011;755;53.658;10.118;2023-04-01T13:12:26;7.00;;;2.92;;
1523;SDS011;755;53.658;10.118;2023-04-01T13:22:45;7.70;;;4.22;;
1523;SDS011;755;53.658;10.118;2023-04-01T13:32:58;10.18;;;3.65;;
1523;SDS011;755;53.658;10.118;2023-04-01T13:43:08;6.60;;;4.13;;
1523;SDS011;755;53.658;10.118;2023-04-01T13:53:19;12.05;;;5.07;;
1523;SDS011;755;53.658;10.118;2023-04-01T14:03:43;12.63;;;5.30;;
1523;SDS011;755;53.658;10.118;2023-04-01T14:14:01;9.80;;;4.15;;
1523;SDS011;755;53.658;10.118;2023-04-01T14:24:18;13.82;;;4.60;;
1523;SDS011;755;53.658;10.118;2023-04-01T14:34:37;10.82;;;4.40;;
1523;SDS011;755;53.658;10.118;2023-04-01T14:44:48;17.05;;;4.68;;
1523;SDS011;755;53.658;10.118;2023-04-01T14:55:00;25.80;;;7.65;;
1523;SDS011;755;53.658;10.118;2023-04-01T15:05:07;7.68;;;3.75;;
1523;SDS011;755;53.658;10.118;2023-04-01T15:15:20;12.07;;;3.28;;
1523;SDS011;755;53.658;10.118;2023-04-01T15:25:35;5.23;;;2.50;;
1523;SDS011;755;53.658;10.118;2023-04-01T15:35:49;7.30;;;4.07;;
1523;SDS011;755;53.658;10.118;2023-04-01T15:56:47;14.98;;;4.22;;
1523;SDS011;755;53.658;10.118;2023-04-01T16:07:03;11.68;;;4.00;;
1523;SDS011;755;53.658;10.118;2023-04-01T16:27:49;11.98;;;4.07;;
1523;SDS011;755;53.658;10.118;2023-04-01T16:37:59;9.43;;;3.40;;
1523;SDS011;755;53.658;10.118;2023-04-01T16:48:06;12.75;;;4.80;;
1523;SDS011;755;53.658;10.118;2023-04-01T16:58:18;10.43;;;3.17;;
1523;SDS011;755;53.658;10.118;2023-04-01T17:08:28;12.13;;;2.72;;
1523;SDS011;755;53.658;10.118;2023-04-01T17:18:43;4.80;;;2.10;;
1523;SDS011;755;53.658;10.118;2023-04-01T17:28:50;4.47;;;2.72;;
1523;SDS011;755;53.658;10.118;2023-04-01T17:39:04;6.25;;;2.10;;
1523;SDS011;755;53.658;10.118;2023-04-01T17:49:26;11.95;;;3.20;;
1523;SDS011;755;53.658;10.118;2023-04-01T17:59:38;8.65;;;2.60;;
1523;SDS011;755;53.658;10.118;2023-04-01T18:09:52;7.40;;;2.90;;
1523;SDS011;755;53.658;10.118;2023-04-01T18:20:11;9.15;;;2.70;;
1523;SDS011;755;53.658;10.118;2023-04-01T18:30:27;5.15;;;2.40;;
1523;SDS011;755;53.658;10.118;2023-04-01T18:40:34;6.80;;;2.72;;
1523;SDS011;755;53.658;10.118;2023-04-01T18:50:38;12.65;;;2.80;;
1523;SDS011;755;53.658;10.118;2023-04-01T19:00:47;11.20;;;2.47;;
1523;SDS011;755;53.658;10.118;2023-04-01T19:11:06;4.38;;;2.92;;
1523;SDS011;755;53.658;10.118;2023-04-01T19:21:14;6.20;;;2.60;;
1523;SDS011;755;53.658;10.118;2023-04-01T19:31:24;11.25;;;2.40;;
1523;SDS011;755;53.658;10.118;2023-04-01T19:41:38;7.10;;;2.55;;
1523;SDS011;755;53.658;10.118;2023-04-01T19:51:47;10.70;;;2.70;;
1523;SDS011;755;53.658;10.118;2023-04-01T20:01:56;11.75;;;3.20;;
1523;SDS011;755;53.658;10.118;2023-04-01T20:12:08;3.17;;;2.15;;
1523;SDS011;755;53.658;10.118;2023-04-01T20:22:31;5.32;;;1.15;;
1523;SDS011;755;53.658;10.118;2023-04-01T20:43:51;18.13;;;2.55;;
1523;SDS011;755;53.658;10.118;2023-04-01T20:54:05;8.02;;;2.45;;
1523;SDS011;755;53.658;10.118;2023-04-01T21:04:24;9.77;;;2.10;;
1523;SDS011;755;53.658;10.118;2023-04-01T21:14:34;3.90;;;2.22;;
1523;SDS011;755;53.658;10.118;2023-04-01T21:24:55;3.38;;;1.35;;
1523;SDS011;755;53.658;10.118;2023-04-01T21:35:06;12.98;;;1.70;;
1523;SDS011;755;53.658;10.118;2023-04-01T21:45:20;8.68;;;2.05;;
1523;SDS011;755;53.658;10.118;2023-04-01T21:56:03;7.40;;;1.50;;
1523;SDS011;755;53.658;10.118;2023-04-01T22:06:41;4.40;;;1.45;;
1523;SDS011;755;53.658;10.118;2023-04-01T22:16:48;11.68;;;2.10;;
1523;SDS011;755;53.658;10.118;2023-04-01T22:26:59;2.83;;;1.20;;
1523;SDS011;755;53.658;10.118;2023-04-01T22:37:10;6.00;;;1.10;;
1523;SDS011;755;53.658;10.118;2023-04-01T22:47:23;10.45;;;1.45;;
1523;SDS011;755;53.658;10.118;2023-04-01T22:57:38;14.07;;;1.33;;
1523;SDS011;755;53.658;10.118;2023-04-01T23:07:50;2.70;;;1.13;;
1523;SDS011;755;53.658;10.118;2023-04-01T23:18:03;3.92;;;0.70;;
1523;SDS011;755;53.658;10.118;2023-04-01T23:38:43;4.97;;;0.85;;
1523;SDS011;755;53.658;10.118;2023-04-01T23:48:51;4.07;;;0.80;;
1523;SDS011;755;53.658;10.118;2023-04-01T23:58:55;10.55;;;0.90;;
